Lady Lauren — WDE7767 — position and weather

sailwx.info

Track history (hours):
 
Tides and Currents Weather Stations Pressure Air Temp Water Temp Dewpoint Dewpoint Depression Visibility Wind Speed Wind Dir Waves Ship Positions

Lady Lauren

Owner: Louisiana Marine Towing LLC, Lafayette, LA. More information available from US FCC via Universal Licensing System and Coast Guard Vessel Documentation Center.

Last reported at 2016-Jul-24 17:33 UTC. Time now 2016-Jul-24 18:33 UTC.
Position N 30°14' W 093°15'.

Length 22 m; draft 2.1 m.

Type: Towing. MMSI: 367397380.

Date/timePositionNaut miles runAvg speedWind from/ knotsBaromVisibWave heightAir tempDewpointWater temp
2016-Jul-24 17:33N 30°14' W 093°15'0 0.0
2016-Jul-24 16:33N 30°14' W 093°15'0 0.0
2016-Jul-24 15:33N 30°14' W 093°15'0 0.0
2016-Jul-24 14:33N 30°14' W 093°15'0 0.1
2016-Jul-24 13:33N 30°14' W 093°15'0 0.0
2016-Jul-24 12:33N 30°14' W 093°15'0 0.0
2016-Jul-24 11:33N 30°14' W 093°15'0 0.0
2016-Jul-24 10:33N 30°14' W 093°15'0 0.0
2016-Jul-24 09:33N 30°14' W 093°15'0 0.0
2016-Jul-24 08:33N 30°14' W 093°15'0 0.0
2016-Jul-24 07:33N 30°14' W 093°15'0 0.0
2016-Jul-24 06:33N 30°14' W 093°15'0 0.0
2016-Jul-24 05:33N 30°14' W 093°15'0 0.0
2016-Jul-24 04:33N 30°14' W 093°15'0 0.0
2016-Jul-24 03:33N 30°14' W 093°15'0 0.0
2016-Jul-24 02:33N 30°14' W 093°15'0 0.0
2016-Jul-24 01:33N 30°14' W 093°15'0 0.0
2016-Jul-24 00:32N 30°14' W 093°15'0 0.0
2016-Jul-23 23:33N 30°14' W 093°15'1 0.7
2016-Jul-23 22:33N 30°13' W 093°15'1 0.9
2016-Jul-23 21:33N 30°13' W 093°16'0 0.0
2016-Jul-23 20:33N 30°13' W 093°16'0 0.0
2016-Jul-23 19:33N 30°13' W 093°16'1 1.1
2016-Jul-23 18:34N 30°12' W 093°16'3 3.4
2016-Jul-23 17:33N 30°10' W 093°19'3 3.0
2016-Jul-23 16:33N 30°07' W 093°20'2 2.4
2016-Jul-23 15:33N 30°06' W 093°18'2 1.6
2016-Jul-23 14:33N 30°05' W 093°17'2 2.1
2016-Jul-23 13:33N 30°03' W 093°16'3 2.5
2016-Jul-23 12:33N 30°01' W 093°14'3 3.2
2016-Jul-23 11:33N 29°58' W 093°12'3 3.3
2016-Jul-23 10:33N 29°56' W 093°09'3 3.3
2016-Jul-23 09:33N 29°56' W 093°05'1 1.4
2016-Jul-23 08:29N 29°56' W 093°03'2 2.5
2016-Jul-23 07:33N 29°56' W 093°01'3 2.9
2016-Jul-23 06:29N 29°56' W 092°57'5 2.7
2016-Jul-23 04:33N 29°57' W 092°51'22 3.1
2016-Jul-22 21:33N 29°53' W 092°27'3 3.1
2016-Jul-22 20:28N 29°53' W 092°23'2 2.5
2016-Jul-22 19:33N 29°51' W 092°21'3 3.2
2016-Jul-22 18:33N 29°50' W 092°18'3 3.2
2016-Jul-22 17:33N 29°48' W 092°15'2 2.4
2016-Jul-22 16:33N 29°47' W 092°12'2 2.3
2016-Jul-22 15:33N 29°47' W 092°10'3 3.3
2016-Jul-22 14:33N 29°48' W 092°06'3 3.2
2016-Jul-22 13:33N 29°49' W 092°03'4 3.8
2016-Jul-22 12:33N 29°50' W 091°59'3 3.3
2016-Jul-22 11:32N 29°51' W 091°55'59 3.2
2016-Jul-21 17:20N 29°32' W 090°51'3 3.4
2016-Jul-21 16:33N 29°32' W 090°48'2 2.5
2016-Jul-21 15:33N 29°33' W 090°45'3 2.6
2016-Jul-21 14:33N 29°35' W 090°43'2 1.9
2016-Jul-21 13:33N 29°37' W 090°42'2 1.5
2016-Jul-21 12:33N 29°36' W 090°40'2 2.4
2016-Jul-21 11:34N 29°35' W 090°38'3 2.9
2016-Jul-21 10:33N 29°34' W 090°34'3 3.0
2016-Jul-21 09:34N 29°34' W 090°31'3 2.9
2016-Jul-21 08:32N 29°33' W 090°28'3 2.7
2016-Jul-21 07:33N 29°33' W 090°25'23 2.4
2016-Jul-20 22:05N 29°47' W 090°04'0 0.6
2016-Jul-20 21:33N 29°47' W 090°04'1 0.9
2016-Jul-20 20:33N 29°48' W 090°04'3 2.9
2016-Jul-20 19:33N 29°50' W 090°02'3 2.9
2016-Jul-20 18:33N 29°53' W 090°00'3 2.7
2016-Jul-20 17:33N 29°55' W 089°58'1 0.6
2016-Jul-20 16:33N 29°55' W 089°58'0 0.1
2016-Jul-20 15:33N 29°55' W 089°58'0 0.0
2016-Jul-20 14:33N 29°55' W 089°58'2 1.9
2016-Jul-20 13:33N 29°56' W 089°60'4 3.5
2016-Jul-20 12:33N 29°56' W 090°04'4 4.0
2016-Jul-20 11:33N 29°56' W 090°08'2 0.6
2016-Jul-20 08:18N 29°57' W 090°10'2 2.3
2016-Jul-20 07:33N 29°56' W 090°08'3 3.0
2016-Jul-20 06:34N 29°55' W 090°05'3 3.4
2016-Jul-20 05:33N 29°57' W 090°03'1 1.3
2016-Jul-20 04:33N 29°58' W 090°02'2 1.5
2016-Jul-20 03:33N 29°60' W 090°01'0 0.0
2016-Jul-20 02:33N 29°60' W 090°01'0 0.0
2016-Jul-20 01:33N 29°60' W 090°01'0 0.0
2016-Jul-20 00:33N 29°60' W 090°01'0 0.0
2016-Jul-19 23:33N 29°60' W 090°01'0 0.0
2016-Jul-19 22:33N 29°60' W 090°01'0 0.0
2016-Jul-19 21:33N 29°60' W 090°01'0 0.0
2016-Jul-19 20:33N 29°60' W 090°01'0 0.0
2016-Jul-19 19:33N 29°60' W 090°01'0 0.0
2016-Jul-19 18:33N 29°60' W 090°01'0 0.0
2016-Jul-19 17:33N 29°60' W 090°01'0 0.0
2016-Jul-19 16:33N 29°60' W 090°01'0 0.0
2016-Jul-19 15:33N 29°60' W 090°01'0 0.0
2016-Jul-19 14:33N 29°60' W 090°01'0 0.0
2016-Jul-19 13:33N 29°60' W 090°01'1 0.6
2016-Jul-19 12:33N 29°60' W 090°01'3 3.1
2016-Jul-19 11:29N 30°00' W 089°57'  
2016-Jul-16 18:28N 30°01' W 089°54'0 0.5
2016-Jul-16 17:23N 30°01' W 089°54'1 1.6
2016-Jul-16 16:31N 30°00' W 089°56'5 4.8
2016-Jul-16 15:33N 29°59' W 090°01'2 1.8
2016-Jul-16 14:34N 29°58' W 090°02'0 0.3
2016-Jul-16 13:34N 29°57' W 090°02'0 0.0
2016-Jul-16 12:34N 29°57' W 090°02'0 0.0
2016-Jul-16 11:34N 29°57' W 090°02'0 0.0
2016-Jul-16 10:34N 29°57' W 090°02'0 0.0
2016-Jul-16 09:34N 29°57' W 090°02'0 0.0
2016-Jul-16 08:34N 29°57' W 090°02'0 0.0
2016-Jul-16 07:34N 29°57' W 090°02'0 0.0
2016-Jul-16 06:34N 29°57' W 090°02'0 0.0
2016-Jul-16 04:34N 29°57' W 090°02'0 0.0
2016-Jul-16 03:34N 29°57' W 090°02'0 0.0
2016-Jul-16 02:33N 29°57' W 090°02'0 0.0
2016-Jul-16 01:34N 29°57' W 090°02'0 0.0
2016-Jul-16 00:34N 29°57' W 090°02'0 0.0
2016-Jul-15 23:33N 29°57' W 090°02'2 2.5
2016-Jul-15 22:33N 29°56' W 089°59'0 0.0
2016-Jul-15 21:33N 29°56' W 089°59'0 0.2
2016-Jul-15 20:34N 29°56' W 089°59'1 0.5
2016-Jul-15 19:34N 29°56' W 090°00'1 0.8
2016-Jul-15 18:34N 29°57' W 090°01'0 0.3
2016-Jul-15 17:34N 29°57' W 090°01'0 0.0
2016-Jul-15 16:34N 29°57' W 090°01'0 0.0
2016-Jul-15 15:34N 29°57' W 090°01'1 1.3
2016-Jul-15 14:34N 29°58' W 090°02'1 0.7
2016-Jul-15 13:33N 29°59' W 090°01'0 0.0
2016-Jul-15 12:33N 29°59' W 090°01'0 0.0
2016-Jul-15 11:33N 29°59' W 090°01'0 0.0
2016-Jul-15 10:33N 29°59' W 090°01'0 0.0
2016-Jul-15 09:33N 29°59' W 090°01'0 0.0
2016-Jul-15 08:33N 29°59' W 090°01'0 0.0
2016-Jul-15 07:33N 29°59' W 090°01'0 0.0
2016-Jul-15 06:33N 29°59' W 090°01'0 0.0
2016-Jul-15 05:33N 29°59' W 090°01'0 0.0
2016-Jul-15 04:33N 29°59' W 090°01'0 0.0
2016-Jul-15 03:33N 29°59' W 090°01'0 0.0
2016-Jul-15 02:33N 29°59' W 090°01'0 0.0
2016-Jul-15 01:33N 29°59' W 090°01'0 0.0
2016-Jul-15 00:33N 29°59' W 090°01'0 0.0
2016-Jul-14 23:33N 29°59' W 090°01'0 0.0
2016-Jul-14 22:33N 29°59' W 090°01'0 0.1
2016-Jul-14 21:33N 29°59' W 090°02'0 0.0
2016-Jul-14 20:33N 29°59' W 090°02'1 1.4
2016-Jul-14 19:33N 29°60' W 090°01'  
Track history (hours):
 
Tides and Currents Weather Stations Pressure Air Temp Water Temp Dewpoint Dewpoint Depression Visibility Wind Speed Wind Dir Waves Ship Positions

Lady Lauren

Owner: Louisiana Marine Towing LLC, Lafayette, LA. More information available from US FCC via Universal Licensing System and Coast Guard Vessel Documentation Center.

Last reported at 2016-Jul-24 17:33 UTC. Time now 2016-Jul-24 18:33 UTC.
Position N 30°14' W 093°15'.

Length 22 m; draft 2.1 m.

Type: Towing. MMSI: 367397380.

Date/timePositionNaut miles runAvg speedWind from/ knotsBaromVisibWave heightAir tempDewpointWater temp
2016-Jul-24 17:33N 30°14' W 093°15'0 0.0
2016-Jul-24 16:33N 30°14' W 093°15'0 0.0
2016-Jul-24 15:33N 30°14' W 093°15'0 0.0
2016-Jul-24 14:33N 30°14' W 093°15'0 0.1
2016-Jul-24 13:33N 30°14' W 093°15'0 0.0
2016-Jul-24 12:33N 30°14' W 093°15'0 0.0
2016-Jul-24 11:33N 30°14' W 093°15'0 0.0
2016-Jul-24 10:33N 30°14' W 093°15'0 0.0
2016-Jul-24 09:33N 30°14' W 093°15'0 0.0
2016-Jul-24 08:33N 30°14' W 093°15'0 0.0
2016-Jul-24 07:33N 30°14' W 093°15'0 0.0
2016-Jul-24 06:33N 30°14' W 093°15'0 0.0
2016-Jul-24 05:33N 30°14' W 093°15'0 0.0
2016-Jul-24 04:33N 30°14' W 093°15'0 0.0
2016-Jul-24 03:33N 30°14' W 093°15'0 0.0
2016-Jul-24 02:33N 30°14' W 093°15'0 0.0
2016-Jul-24 01:33N 30°14' W 093°15'0 0.0
2016-Jul-24 00:32N 30°14' W 093°15'0 0.0
2016-Jul-23 23:33N 30°14' W 093°15'1 0.7
2016-Jul-23 22:33N 30°13' W 093°15'1 0.9
2016-Jul-23 21:33N 30°13' W 093°16'0 0.0
2016-Jul-23 20:33N 30°13' W 093°16'0 0.0
2016-Jul-23 19:33N 30°13' W 093°16'1 1.1
2016-Jul-23 18:34N 30°12' W 093°16'3 3.4
2016-Jul-23 17:33N 30°10' W 093°19'3 3.0
2016-Jul-23 16:33N 30°07' W 093°20'2 2.4
2016-Jul-23 15:33N 30°06' W 093°18'2 1.6
2016-Jul-23 14:33N 30°05' W 093°17'2 2.1
2016-Jul-23 13:33N 30°03' W 093°16'3 2.5
2016-Jul-23 12:33N 30°01' W 093°14'3 3.2
2016-Jul-23 11:33N 29°58' W 093°12'3 3.3
2016-Jul-23 10:33N 29°56' W 093°09'3 3.3
2016-Jul-23 09:33N 29°56' W 093°05'1 1.4
2016-Jul-23 08:29N 29°56' W 093°03'2 2.5
2016-Jul-23 07:33N 29°56' W 093°01'3 2.9
2016-Jul-23 06:29N 29°56' W 092°57'5 2.7
2016-Jul-23 04:33N 29°57' W 092°51'22 3.1
2016-Jul-22 21:33N 29°53' W 092°27'3 3.1
2016-Jul-22 20:28N 29°53' W 092°23'2 2.5
2016-Jul-22 19:33N 29°51' W 092°21'3 3.2
2016-Jul-22 18:33N 29°50' W 092°18'3 3.2
2016-Jul-22 17:33N 29°48' W 092°15'2 2.4
2016-Jul-22 16:33N 29°47' W 092°12'2 2.3
2016-Jul-22 15:33N 29°47' W 092°10'3 3.3
2016-Jul-22 14:33N 29°48' W 092°06'3 3.2
2016-Jul-22 13:33N 29°49' W 092°03'4 3.8
2016-Jul-22 12:33N 29°50' W 091°59'3 3.3
2016-Jul-22 11:32N 29°51' W 091°55'59 3.2
2016-Jul-21 17:20N 29°32' W 090°51'3 3.4
2016-Jul-21 16:33N 29°32' W 090°48'2 2.5
2016-Jul-21 15:33N 29°33' W 090°45'3 2.6
2016-Jul-21 14:33N 29°35' W 090°43'2 1.9
2016-Jul-21 13:33N 29°37' W 090°42'2 1.5
2016-Jul-21 12:33N 29°36' W 090°40'2 2.4
2016-Jul-21 11:34N 29°35' W 090°38'3 2.9
2016-Jul-21 10:33N 29°34' W 090°34'3 3.0
2016-Jul-21 09:34N 29°34' W 090°31'3 2.9
2016-Jul-21 08:32N 29°33' W 090°28'3 2.7
2016-Jul-21 07:33N 29°33' W 090°25'23 2.4
2016-Jul-20 22:05N 29°47' W 090°04'0 0.6
2016-Jul-20 21:33N 29°47' W 090°04'1 0.9
2016-Jul-20 20:33N 29°48' W 090°04'3 2.9
2016-Jul-20 19:33N 29°50' W 090°02'3 2.9
2016-Jul-20 18:33N 29°53' W 090°00'3 2.7
2016-Jul-20 17:33N 29°55' W 089°58'1 0.6
2016-Jul-20 16:33N 29°55' W 089°58'0 0.1
2016-Jul-20 15:33N 29°55' W 089°58'0 0.0
2016-Jul-20 14:33N 29°55' W 089°58'2 1.9
2016-Jul-20 13:33N 29°56' W 089°60'4 3.5
2016-Jul-20 12:33N 29°56' W 090°04'4 4.0
2016-Jul-20 11:33N 29°56' W 090°08'2 0.6
2016-Jul-20 08:18N 29°57' W 090°10'2 2.3
2016-Jul-20 07:33N 29°56' W 090°08'3 3.0
2016-Jul-20 06:34N 29°55' W 090°05'3 3.4
2016-Jul-20 05:33N 29°57' W 090°03'1 1.3
2016-Jul-20 04:33N 29°58' W 090°02'2 1.5
2016-Jul-20 03:33N 29°60' W 090°01'0 0.0
2016-Jul-20 02:33N 29°60' W 090°01'0 0.0
2016-Jul-20 01:33N 29°60' W 090°01'0 0.0
2016-Jul-20 00:33N 29°60' W 090°01'0 0.0
2016-Jul-19 23:33N 29°60' W 090°01'0 0.0
2016-Jul-19 22:33N 29°60' W 090°01'0 0.0
2016-Jul-19 21:33N 29°60' W 090°01'0 0.0
2016-Jul-19 20:33N 29°60' W 090°01'0 0.0
2016-Jul-19 19:33N 29°60' W 090°01'0 0.0
2016-Jul-19 18:33N 29°60' W 090°01'0 0.0
2016-Jul-19 17:33N 29°60' W 090°01'0 0.0
2016-Jul-19 16:33N 29°60' W 090°01'0 0.0
2016-Jul-19 15:33N 29°60' W 090°01'0 0.0
2016-Jul-19 14:33N 29°60' W 090°01'0 0.0
2016-Jul-19 13:33N 29°60' W 090°01'1 0.6
2016-Jul-19 12:33N 29°60' W 090°01'3 3.1
2016-Jul-19 11:29N 30°00' W 089°57'  
2016-Jul-16 18:28N 30°01' W 089°54'0 0.5
2016-Jul-16 17:23N 30°01' W 089°54'1 1.6
2016-Jul-16 16:31N 30°00' W 089°56'5 4.8
2016-Jul-16 15:33N 29°59' W 090°01'2 1.8
2016-Jul-16 14:34N 29°58' W 090°02'0 0.3
2016-Jul-16 13:34N 29°57' W 090°02'0 0.0
2016-Jul-16 12:34N 29°57' W 090°02'0 0.0
2016-Jul-16 11:34N 29°57' W 090°02'0 0.0
2016-Jul-16 10:34N 29°57' W 090°02'0 0.0
2016-Jul-16 09:34N 29°57' W 090°02'0 0.0
2016-Jul-16 08:34N 29°57' W 090°02'0 0.0
2016-Jul-16 07:34N 29°57' W 090°02'0 0.0
2016-Jul-16 06:34N 29°57' W 090°02'0 0.0
2016-Jul-16 04:34N 29°57' W 090°02'0 0.0
2016-Jul-16 03:34N 29°57' W 090°02'0 0.0
2016-Jul-16 02:33N 29°57' W 090°02'0 0.0
2016-Jul-16 01:34N 29°57' W 090°02'0 0.0
2016-Jul-16 00:34N 29°57' W 090°02'0 0.0
2016-Jul-15 23:33N 29°57' W 090°02'2 2.5
2016-Jul-15 22:33N 29°56' W 089°59'0 0.0
2016-Jul-15 21:33N 29°56' W 089°59'0 0.2
2016-Jul-15 20:34N 29°56' W 089°59'1 0.5
2016-Jul-15 19:34N 29°56' W 090°00'1 0.8
2016-Jul-15 18:34N 29°57' W 090°01'0 0.3
2016-Jul-15 17:34N 29°57' W 090°01'0 0.0
2016-Jul-15 16:34N 29°57' W 090°01'0 0.0
2016-Jul-15 15:34N 29°57' W 090°01'1 1.3
2016-Jul-15 14:34N 29°58' W 090°02'1 0.7
2016-Jul-15 13:33N 29°59' W 090°01'0 0.0
2016-Jul-15 12:33N 29°59' W 090°01'0 0.0
2016-Jul-15 11:33N 29°59' W 090°01'0 0.0
2016-Jul-15 10:33N 29°59' W 090°01'0 0.0
2016-Jul-15 09:33N 29°59' W 090°01'0 0.0
2016-Jul-15 08:33N 29°59' W 090°01'0 0.0
2016-Jul-15 07:33N 29°59' W 090°01'0 0.0
2016-Jul-15 06:33N 29°59' W 090°01'0 0.0
2016-Jul-15 05:33N 29°59' W 090°01'0 0.0
2016-Jul-15 04:33N 29°59' W 090°01'0 0.0
2016-Jul-15 03:33N 29°59' W 090°01'0 0.0
2016-Jul-15 02:33N 29°59' W 090°01'0 0.0
2016-Jul-15 01:33N 29°59' W 090°01'0 0.0
2016-Jul-15 00:33N 29°59' W 090°01'0 0.0
2016-Jul-14 23:33N 29°59' W 090°01'0 0.0
2016-Jul-14 22:33N 29°59' W 090°01'0 0.1
2016-Jul-14 21:33N 29°59' W 090°02'0 0.0
2016-Jul-14 20:33N 29°59' W 090°02'1 1.4
2016-Jul-14 19:33N 29°60' W 090°01'  

Dump ship's entire track history